createdAt,value
2023-04-15T00:01:48.037Z,96003.69
2023-04-15T00:04:14.619Z,96011.41
2023-04-15T00:06:41.652Z,96011.13
2023-04-15T00:09:08.153Z,96008.38
2023-04-15T00:11:36.531Z,96005.69
2023-04-15T00:14:03.216Z,96004.22
2023-04-15T00:16:29.800Z,96005.47
2023-04-15T00:18:56.876Z,96002.94
2023-04-15T00:21:23.244Z,96009.72
2023-04-15T00:23:52.594Z,96008.19
2023-04-15T00:26:19.691Z,96012.16
2023-04-15T00:28:46.430Z,96011.44
2023-04-15T00:31:12.848Z,96005.28
2023-04-15T00:33:40.037Z,96004.56
2023-04-15T00:36:07.300Z,96006.63
2023-04-15T00:38:33.725Z,95993.00
2023-04-15T00:41:00.206Z,95996.28
2023-04-15T00:43:26.670Z,96003.16
2023-04-15T00:45:54.453Z,96000.41
2023-04-15T00:48:21.261Z,96001.97
2023-04-15T00:50:47.627Z,95995.41
2023-04-15T00:53:14.276Z,96002.09
2023-04-15T00:55:40.679Z,96001.28
2023-04-15T00:58:07.103Z,96008.06
2023-04-15T01:00:34.502Z,96004.31
2023-04-15T01:03:01.629Z,96004.53
2023-04-15T01:05:28.539Z,96012.59
2023-04-15T01:07:55.417Z,96009.84
2023-04-15T01:10:22.129Z,96011.06
2023-04-15T01:12:48.627Z,96012.28
2023-04-15T01:15:16.103Z,96009.78
2023-04-15T01:17:42.756Z,96008.84
2023-04-15T01:20:12.507Z,96012.88
2023-04-15T01:22:39.442Z,96009.69
2023-04-15T01:25:08.824Z,96006.09
2023-04-15T01:27:36.447Z,96005.63
2023-04-15T01:30:05.256Z,96008.84
2023-04-15T01:32:31.886Z,96012.59
2023-04-15T01:34:58.421Z,96016.19
2023-04-15T01:37:25.262Z,96007.72
2023-04-15T01:39:51.994Z,96008.16
2023-04-15T01:42:18.696Z,96008.38
2023-04-15T01:44:45.197Z,96004.16
2023-04-15T01:47:12.426Z,96004.16
2023-04-15T01:49:38.852Z,96003.00
2023-04-15T01:52:05.584Z,96006.72
2023-04-15T01:54:31.990Z,96004.97
2023-04-15T01:56:58.761Z,95998.38
2023-04-15T01:59:25.257Z,95994.75
2023-04-15T02:01:52.331Z,95992.56
2023-04-15T02:04:18.930Z,95997.22
2023-04-15T02:06:46.064Z,95995.63
2023-04-15T02:09:12.445Z,96000.81
2023-04-15T02:11:39.208Z,95995.63
2023-04-15T02:14:06.332Z,95999.22
2023-04-15T02:16:33.602Z,95992.88
2023-04-15T02:19:00.837Z,96004.13
2023-04-15T02:21:27.633Z,95997.75
2023-04-15T02:23:54.237Z,95991.75
2023-04-15T02:26:20.921Z,95996.16
2023-04-15T02:28:47.328Z,95999.19
2023-04-15T02:31:13.741Z,95993.97
2023-04-15T02:33:40.624Z,95989.78
2023-04-15T02:36:08.362Z,95991.22
2023-04-15T02:38:34.929Z,95998.63
2023-04-15T02:41:01.575Z,95984.00
2023-04-15T02:43:27.982Z,95988.63
2023-04-15T02:45:54.463Z,95995.41
2023-04-15T02:48:21.128Z,95995.41
2023-04-15T02:50:48.113Z,95997.44
2023-04-15T02:53:14.795Z,95993.88
2023-04-15T02:55:41.592Z,95993.91
2023-04-15T02:58:08.044Z,95999.56
2023-04-15T03:00:34.796Z,95995.00
2023-04-15T03:03:06.027Z,96001.25
2023-04-15T03:05:32.568Z,95992.53
2023-04-15T03:07:58.993Z,95988.91
2023-04-15T03:10:25.488Z,95999.31
2023-04-15T03:12:51.861Z,96000.50
2023-04-15T03:15:18.281Z,95998.31
2023-04-15T03:17:44.703Z,96000.75
2023-04-15T03:20:11.229Z,95998.56
2023-04-15T03:22:37.754Z,96000.16
2023-04-15T03:25:04.437Z,95995.75
2023-04-15T03:27:30.965Z,95999.38
2023-04-15T03:29:57.552Z,95989.75
2023-04-15T03:32:24.377Z,95989.75
2023-04-15T03:34:51.076Z,95988.91
2023-04-15T03:37:17.596Z,95990.88
2023-04-15T03:39:43.985Z,95992.28
2023-04-15T03:42:10.441Z,95986.69
2023-04-15T03:44:37.115Z,95990.53
2023-04-15T03:47:03.557Z,95981.38
2023-04-15T03:49:30.211Z,95988.44
2023-04-15T03:51:56.689Z,95983.47
2023-04-15T03:54:23.084Z,95997.53
2023-04-15T03:56:49.507Z,95996.78
2023-04-15T03:59:16.028Z,95984.41
2023-04-15T04:01:42.510Z,95989.59
2023-04-15T04:04:09.205Z,95985.41
2023-04-15T04:06:35.978Z,95976.00
2023-04-15T04:09:02.746Z,95985.00
2023-04-15T04:11:29.395Z,95987.84
2023-04-15T04:13:55.872Z,95986.88
2023-04-15T04:16:22.404Z,95994.44
2023-04-15T04:18:48.848Z,95997.19
2023-04-15T04:21:15.296Z,95993.19
2023-04-15T04:23:41.701Z,95992.78
2023-04-15T04:26:08.482Z,95995.19
2023-04-15T04:28:36.327Z,95998.41
2023-04-15T04:31:02.807Z,95991.16
2023-04-15T04:33:29.281Z,96002.97
2023-04-15T04:35:55.761Z,96005.19
2023-04-15T04:38:22.202Z,96001.56
2023-04-15T04:40:48.638Z,96002.59
2023-04-15T04:43:15.939Z,96004.16
2023-04-15T04:45:42.925Z,96004.16
2023-04-15T04:48:10.528Z,96002.78
2023-04-15T04:50:37.080Z,96002.53
2023-04-15T04:53:03.728Z,96005.53
2023-04-15T04:55:32.393Z,96012.56
2023-04-15T04:57:58.906Z,96012.16
2023-04-15T05:00:25.479Z,96014.78
2023-04-15T05:02:52.161Z,96015.22
2023-04-15T05:05:19.034Z,96026.03
2023-04-15T05:07:45.476Z,96020.59
2023-04-15T05:10:11.869Z,96021.16
2023-04-15T05:12:38.813Z,96019.97
2023-04-15T05:15:06.654Z,96022.75
2023-04-15T05:17:35.232Z,96027.50
2023-04-15T05:20:03.329Z,96021.91
2023-04-15T05:22:30.010Z,96019.44
2023-04-15T05:24:56.360Z,96018.53
2023-04-15T05:27:24.059Z,96020.63
2023-04-15T05:29:50.549Z,96030.25
2023-04-15T05:32:17.461Z,96024.09
2023-04-15T05:34:43.904Z,96023.97
2023-04-15T05:37:10.472Z,96025.44
2023-04-15T05:39:36.942Z,96031.69
2023-04-15T05:42:03.464Z,96034.59
2023-04-15T05:44:30.087Z,96017.75
2023-04-15T05:46:56.891Z,96026.41
2023-04-15T05:49:23.559Z,96020.28
2023-04-15T05:51:50.004Z,96029.41
2023-04-15T05:54:19.297Z,96030.75
2023-04-15T05:56:46.552Z,96029.50
2023-04-15T05:59:13.130Z,96031.22
2023-04-15T06:01:39.977Z,96025.53
2023-04-15T06:04:06.731Z,96027.47
2023-04-15T06:06:33.397Z,96029.38
2023-04-15T06:08:59.963Z,96028.81
2023-04-15T06:11:27.282Z,96032.69
2023-04-15T06:13:53.735Z,96032.13
2023-04-15T06:16:20.330Z,96021.22
2023-04-15T06:18:46.712Z,96025.09
2023-04-15T06:21:13.113Z,96032.59
2023-04-15T06:23:41.108Z,96030.53
2023-04-15T06:26:07.817Z,96033.94
2023-04-15T06:28:34.410Z,96036.41
2023-04-15T06:31:01.883Z,96042.03
2023-04-15T06:33:28.640Z,96049.84
2023-04-15T06:35:55.372Z,96043.94
2023-04-15T06:38:21.840Z,96040.69
2023-04-15T06:40:48.427Z,96044.41
2023-04-15T06:43:15.391Z,96044.16
2023-04-15T06:45:41.878Z,96054.97
2023-04-15T06:48:08.409Z,96054.75
2023-04-15T06:50:35.703Z,96055.75
2023-04-15T06:53:03.045Z,96057.09
2023-04-15T06:55:29.523Z,96060.56
2023-04-15T06:57:56.226Z,96061.34
2023-04-15T07:00:22.765Z,96057.47
2023-04-15T07:02:49.230Z,96057.50
2023-04-15T07:05:15.649Z,96064.38
2023-04-15T07:07:42.242Z,96056.16
2023-04-15T07:10:09.177Z,96050.78
2023-04-15T07:12:36.865Z,96048.59
2023-04-15T07:15:04.360Z,96047.72
2023-04-15T07:17:30.858Z,96043.69
2023-04-15T07:19:57.377Z,96049.75
2023-04-15T07:22:23.862Z,96061.09
2023-04-15T07:24:50.253Z,96047.69
2023-04-15T07:27:17.861Z,96046.47
2023-04-15T07:29:44.325Z,96045.13
2023-04-15T07:32:11.308Z,96048.81
2023-04-15T07:34:38.041Z,96048.31
2023-04-15T07:37:04.516Z,96049.63
2023-04-15T07:39:32.140Z,96048.56
2023-04-15T07:41:59.049Z,96040.09
2023-04-15T07:44:27.017Z,96048.84
2023-04-15T07:46:53.609Z,96044.31
2023-04-15T07:49:21.342Z,96045.63
2023-04-15T07:51:48.922Z,96043.66
2023-04-15T07:54:16.199Z,96041.72
2023-04-15T07:56:42.672Z,96030.19
2023-04-15T07:59:10.094Z,96035.91
2023-04-15T08:01:36.786Z,96032.56
2023-04-15T08:04:03.803Z,96038.03
2023-04-15T08:06:30.853Z,96043.38
2023-04-15T08:08:57.507Z,96028.53
2023-04-15T08:11:24.538Z,96034.53
2023-04-15T08:13:52.071Z,96029.63
2023-04-15T08:16:24.449Z,96028.66
2023-04-15T08:18:54.013Z,96031.31
2023-04-15T08:21:20.452Z,96029.06
2023-04-15T08:23:49.248Z,96037.13
2023-04-15T08:26:15.822Z,96029.09
2023-04-15T08:28:44.118Z,96028.00
2023-04-15T08:31:10.816Z,96031.00
2023-04-15T08:33:37.297Z,96037.78
2023-04-15T08:36:04.492Z,96026.56
2023-04-15T08:38:31.400Z,96036.59
2023-04-15T08:40:59.981Z,96030.97
2023-04-15T08:43:34.275Z,96042.84
2023-04-15T08:46:01.681Z,96040.28
2023-04-15T08:48:34.639Z,96032.56
2023-04-15T08:51:01.770Z,96039.06
2023-04-15T08:53:29.445Z,96043.81
2023-04-15T08:55:58.553Z,96040.78
2023-04-15T08:58:25.392Z,96041.88
2023-04-15T09:00:51.956Z,96043.66
2023-04-15T09:03:19.096Z,96040.25
2023-04-15T09:05:45.889Z,96034.94
2023-04-15T09:08:12.689Z,96043.19
2023-04-15T09:10:39.192Z,96043.56
2023-04-15T09:13:05.608Z,96048.63
2023-04-15T09:15:32.964Z,96045.94
2023-04-15T09:17:59.556Z,96050.38
2023-04-15T09:20:26.337Z,96052.81
2023-04-15T09:22:52.772Z,96055.22
2023-04-15T09:25:29.170Z,96051.91
2023-04-15T09:27:58.222Z,96063.09
2023-04-15T09:30:25.378Z,96062.28
2023-04-15T09:32:54.477Z,96060.72
2023-04-15T09:35:22.257Z,96063.91
2023-04-15T09:37:52.375Z,96062.50
2023-04-15T09:40:36.050Z,96064.50
2023-04-15T09:43:05.011Z,96073.16
2023-04-15T09:45:32.849Z,96061.31
2023-04-15T09:48:14.532Z,96064.75
2023-04-15T09:50:42.740Z,96070.69
2023-04-15T09:53:20.130Z,96059.84
2023-04-15T09:55:49.985Z,96065.72
2023-04-15T09:58:27.449Z,96067.28
2023-04-15T10:00:56.453Z,96057.59
2023-04-15T10:03:28.827Z,96065.34
2023-04-15T10:05:57.367Z,96065.16
2023-04-15T10:08:25.799Z,96071.16
2023-04-15T10:10:52.419Z,96067.50
2023-04-15T10:13:22.320Z,96064.41
2023-04-15T10:15:52.225Z,96062.47
2023-04-15T10:18:21.718Z,96068.81
2023-04-15T10:20:49.096Z,96064.66
2023-04-15T10:23:15.452Z,96062.31
2023-04-15T10:25:42.527Z,96066.59
2023-04-15T10:28:09.579Z,96067.78
2023-04-15T10:30:36.701Z,96068.16
2023-04-15T10:33:04.349Z,96070.53
2023-04-15T10:35:32.790Z,96070.69
2023-04-15T10:37:59.460Z,96071.69
2023-04-15T10:40:33.140Z,96075.25
2023-04-15T10:43:01.449Z,96078.00
2023-04-15T10:45:32.406Z,96075.25
2023-04-15T10:48:03.590Z,96081.63
2023-04-15T10:50:34.321Z,96072.06
2023-04-15T10:53:04.662Z,96075.38
2023-04-15T10:55:34.537Z,96078.00
2023-04-15T10:58:02.082Z,96080.66
2023-04-15T11:00:31.005Z,96080.72
2023-04-15T11:03:08.870Z,96085.66
2023-04-15T11:05:41.550Z,96077.59
2023-04-15T11:08:09.434Z,96080.91
2023-04-15T11:10:35.813Z,96085.72
2023-04-15T11:13:04.593Z,96088.00
2023-04-15T11:15:47.817Z,96090.25
2023-04-15T11:18:20.353Z,96079.28
2023-04-15T11:20:52.223Z,96094.06
2023-04-15T11:23:20.009Z,96094.00
2023-04-15T11:25:46.620Z,96084.22
2023-04-15T11:28:13.530Z,96094.59
2023-04-15T11:30:40.575Z,96084.25
2023-04-15T11:33:09.522Z,96087.91
2023-04-15T11:35:36.551Z,96091.00
2023-04-15T11:38:09.291Z,96083.84
2023-04-15T11:40:36.233Z,96088.28
2023-04-15T11:43:14.235Z,96083.78
2023-04-15T11:45:56.244Z,96084.78
2023-04-15T11:48:25.010Z,96091.22
2023-04-15T11:51:00.965Z,96094.50
2023-04-15T11:53:48.219Z,96097.69
2023-04-15T11:56:25.581Z,96100.75
2023-04-15T11:58:54.393Z,96104.31
2023-04-15T12:01:20.807Z,96115.63
2023-04-15T12:03:48.994Z,96125.41
2023-04-15T12:06:25.760Z,96124.94
2023-04-15T12:08:55.275Z,96127.72
2023-04-15T12:11:49.163Z,96117.78
2023-04-15T12:14:15.609Z,96122.50
2023-04-15T12:16:44.605Z,96132.28
2023-04-15T12:19:24.361Z,96130.59
2023-04-15T12:21:51.504Z,96139.38
2023-04-15T12:24:22.051Z,96140.56
2023-04-15T12:26:51.145Z,96135.41
2023-04-15T12:29:17.792Z,96130.56
2023-04-15T12:31:53.234Z,96142.34
2023-04-15T12:34:27.677Z,96148.84
2023-04-15T12:36:55.144Z,96153.19
2023-04-15T12:39:27.642Z,96154.28
2023-04-15T12:41:55.899Z,96167.00
2023-04-15T12:44:24.051Z,96162.06
2023-04-15T12:46:52.785Z,96167.88
2023-04-15T12:49:21.009Z,96167.78
2023-04-15T12:51:52.190Z,96181.22
2023-04-15T12:54:18.968Z,96160.75
2023-04-15T12:56:46.687Z,96166.78
2023-04-15T12:59:13.704Z,96180.81
2023-04-15T13:01:40.582Z,96179.47
2023-04-15T13:04:07.387Z,96182.00
2023-04-15T13:06:34.455Z,96177.63
2023-04-15T13:09:01.898Z,96179.75
2023-04-15T13:11:31.107Z,96184.66
2023-04-15T13:13:57.904Z,96188.63
2023-04-15T13:16:24.781Z,96195.34
2023-04-15T13:18:51.274Z,96192.47
2023-04-15T13:21:18.323Z,96193.75
2023-04-15T13:23:44.965Z,96192.47
2023-04-15T13:26:11.411Z,96203.34
2023-04-15T13:28:38.167Z,96204.97
2023-04-15T13:31:05.750Z,96207.56
2023-04-15T13:33:32.272Z,96209.94
2023-04-15T13:35:59.972Z,96217.47
2023-04-15T13:38:26.767Z,96222.72
2023-04-15T13:40:53.269Z,96230.03
2023-04-15T13:43:19.632Z,96229.53
2023-04-15T13:45:46.982Z,96240.47
2023-04-15T13:48:13.670Z,96239.38
2023-04-15T13:50:41.766Z,96243.97
2023-04-15T13:53:08.435Z,96249.16
2023-04-15T13:55:35.501Z,96251.84
2023-04-15T13:58:01.967Z,96259.63
2023-04-15T14:00:28.393Z,96261.69
2023-04-15T14:02:55.007Z,96269.59
2023-04-15T14:05:21.531Z,96267.66
2023-04-15T14:07:47.936Z,96268.63
2023-04-15T14:10:14.389Z,96280.59
2023-04-15T14:12:40.985Z,96283.59
2023-04-15T14:15:08.397Z,96290.19
2023-04-15T14:17:34.820Z,96296.34
2023-04-15T14:20:01.364Z,96310.34
2023-04-15T14:22:28.034Z,96305.00
2023-04-15T14:24:55.612Z,96317.00
2023-04-15T14:27:22.260Z,96311.28
2023-04-15T14:29:48.926Z,96305.66
2023-04-15T14:32:16.841Z,96306.34
2023-04-15T14:34:43.926Z,96307.16
2023-04-15T14:37:10.743Z,96308.97
2023-04-15T14:39:37.295Z,96318.44
2023-04-15T14:42:03.962Z,96326.13
2023-04-15T14:46:57.713Z,96324.41
2023-04-15T14:49:24.371Z,96325.19
2023-04-15T14:51:50.862Z,96329.75
2023-04-15T14:54:17.268Z,96325.84
2023-04-15T14:56:43.772Z,96324.78
2023-04-15T14:59:10.521Z,96329.63
2023-04-15T15:01:37.055Z,96336.03
2023-04-15T15:04:04.202Z,96342.94
2023-04-15T15:06:31.473Z,96348.81
2023-04-15T15:08:57.959Z,96347.97
2023-04-15T15:11:24.324Z,96355.66
2023-04-15T15:13:50.863Z,96355.22
2023-04-15T15:16:17.634Z,96354.34
2023-04-15T15:18:44.514Z,96359.94
2023-04-15T15:21:10.965Z,96363.72
2023-04-15T15:23:37.383Z,96371.69
2023-04-15T15:26:04.086Z,96370.59
2023-04-15T15:28:30.666Z,96366.34
2023-04-15T15:30:57.166Z,96382.75
2023-04-15T15:33:23.604Z,96381.75
2023-04-15T15:35:51.093Z,96388.34
2023-04-15T15:38:17.432Z,96393.94
2023-04-15T15:40:43.890Z,96394.53
2023-04-15T15:43:10.456Z,96400.28
2023-04-15T15:45:36.908Z,96398.44
2023-04-15T15:48:03.592Z,96399.25
2023-04-15T15:50:30.027Z,96410.16
2023-04-15T15:52:58.424Z,96407.22
2023-04-15T15:55:26.975Z,96415.19
2023-04-15T15:57:54.265Z,96416.25
2023-04-15T16:00:21.292Z,96407.78
2023-04-15T16:05:17.037Z,96413.09
2023-04-15T16:07:43.438Z,96421.03
2023-04-15T16:10:10.086Z,96415.72
2023-04-15T16:12:36.545Z,96419.47
2023-04-15T16:15:04.238Z,96427.91
2023-04-15T16:17:30.935Z,96424.22
2023-04-15T16:20:01.079Z,96437.47
2023-04-15T16:22:27.893Z,96439.31
2023-04-15T16:24:54.386Z,96439.28
2023-04-15T16:27:20.837Z,96440.66
2023-04-15T16:29:47.245Z,96444.59
2023-04-15T16:32:13.744Z,96455.47
2023-04-15T16:34:41.297Z,96464.44
2023-04-15T16:37:07.890Z,96459.16
2023-04-15T16:39:34.320Z,96462.34
2023-04-15T16:42:02.285Z,96471.34
2023-04-15T16:44:29.884Z,96470.53
2023-04-15T16:46:56.818Z,96477.69
2023-04-15T16:49:23.268Z,96475.56
2023-04-15T16:51:49.703Z,96480.59
2023-04-15T16:54:16.159Z,96479.78
2023-04-15T16:56:42.567Z,96493.22
2023-04-15T16:59:09.142Z,96497.41
2023-04-15T17:01:36.048Z,96493.41
2023-04-15T17:04:02.906Z,96499.13
2023-04-15T17:06:29.396Z,96497.97
2023-04-15T17:08:55.743Z,96507.13
2023-04-15T17:11:22.173Z,96511.00
2023-04-15T17:13:49.068Z,96518.28
2023-04-15T17:16:15.679Z,96526.16
2023-04-15T17:18:42.232Z,96529.66
2023-04-15T17:21:08.656Z,96527.94
2023-04-15T17:23:35.176Z,96535.63
2023-04-15T17:26:01.752Z,96538.59
2023-04-15T17:28:28.244Z,96552.16
2023-04-15T17:30:54.904Z,96560.56
2023-04-15T17:33:50.545Z,96555.16
2023-04-15T17:36:08.772Z,96569.78
2023-04-15T17:38:35.296Z,96569.06
2023-04-15T17:41:01.673Z,96573.22
2023-04-15T17:43:28.358Z,96576.81
2023-04-15T17:45:54.999Z,96591.94
2023-04-15T17:48:22.126Z,96588.66
2023-04-15T17:50:49.876Z,96599.50
2023-04-15T17:53:18.351Z,96601.50
2023-04-15T17:55:44.791Z,96603.34
2023-04-15T17:58:11.532Z,96600.47
2023-04-15T18:00:38.047Z,96611.88
2023-04-15T18:03:04.846Z,96615.44
2023-04-15T18:05:31.381Z,96616.56
2023-04-15T18:07:58.091Z,96615.78
2023-04-15T18:10:24.570Z,96629.63
2023-04-15T18:12:50.902Z,96629.91
2023-04-15T18:15:17.371Z,96625.00
2023-04-15T18:17:43.904Z,96630.69
2023-04-15T18:20:10.864Z,96632.88
2023-04-15T18:22:37.243Z,96637.56
2023-04-15T18:25:04.358Z,96633.50
2023-04-15T18:27:34.451Z,96650.63
2023-04-15T18:30:00.992Z,96645.25
2023-04-15T18:32:31.267Z,96644.25
2023-04-15T18:34:58.579Z,96649.19
2023-04-15T18:37:26.478Z,96651.00
2023-04-15T18:39:54.373Z,96659.03
2023-04-15T18:42:21.642Z,96667.84
2023-04-15T18:44:48.798Z,96676.31
2023-04-15T18:47:15.691Z,96679.47
2023-04-15T18:49:42.125Z,96678.34
2023-04-15T18:52:11.437Z,96686.47
2023-04-15T18:54:38.273Z,96684.63
2023-04-15T18:57:04.773Z,96685.66
2023-04-15T18:59:31.631Z,96687.88
2023-04-15T19:01:59.642Z,96693.47
2023-04-15T19:04:26.342Z,96697.00
2023-04-15T19:06:52.860Z,96700.91
2023-04-15T19:09:19.304Z,96699.53
2023-04-15T19:11:45.780Z,96700.91
2023-04-15T19:14:12.220Z,96714.59
2023-04-15T19:16:38.696Z,96712.34
2023-04-15T19:19:06.665Z,96722.38
2023-04-15T19:21:33.279Z,96717.47
2023-04-15T19:24:00.820Z,96722.25
2023-04-15T19:26:27.339Z,96719.03
2023-04-15T19:28:53.901Z,96732.44
2023-04-15T19:31:20.686Z,96731.75
2023-04-15T19:33:47.241Z,96736.19
2023-04-15T19:36:13.771Z,96732.78
2023-04-15T19:38:40.317Z,96728.91
2023-04-15T19:41:06.752Z,96734.16
2023-04-15T19:43:33.305Z,96731.53
2023-04-15T19:46:00.067Z,96732.53
2023-04-15T19:48:26.598Z,96737.81
2023-04-15T19:50:53.096Z,96743.06
2023-04-15T19:53:19.976Z,96747.63
2023-04-15T19:55:47.137Z,96736.63
2023-04-15T19:58:13.598Z,96745.47
2023-04-15T20:00:43.308Z,96753.09
2023-04-15T20:03:10.553Z,96752.66
2023-04-15T20:05:37.249Z,96758.81
2023-04-15T20:08:03.735Z,96762.81
2023-04-15T20:10:31.961Z,96765.22
2023-04-15T20:12:58.507Z,96760.28
2023-04-15T20:15:25.008Z,96755.72
2023-04-15T20:17:51.745Z,96758.47
2023-04-15T20:20:18.482Z,96756.78
2023-04-15T20:22:46.770Z,96756.63
2023-04-15T20:25:13.221Z,96749.31
2023-04-15T20:27:39.797Z,96750.81
2023-04-15T20:30:07.368Z,96753.19
2023-04-15T20:32:35.919Z,96750.03
2023-04-15T20:35:04.382Z,96750.31
2023-04-15T20:37:33.228Z,96759.03
2023-04-15T20:40:00.663Z,96749.22
2023-04-15T20:42:27.104Z,96754.13
2023-04-15T20:44:53.562Z,96755.50
2023-04-15T20:47:20.407Z,96751.63
2023-04-15T20:49:47.404Z,96757.78
2023-04-15T20:52:13.899Z,96758.44
2023-04-15T20:54:40.350Z,96750.59
2023-04-15T20:57:06.884Z,96760.16
2023-04-15T20:59:34.853Z,96756.97
2023-04-15T21:02:02.092Z,96760.53
2023-04-15T21:04:28.809Z,96757.09
2023-04-15T21:06:55.424Z,96762.94
2023-04-15T21:09:21.994Z,96759.03
2023-04-15T21:14:19.024Z,96768.50
2023-04-15T21:16:45.585Z,96764.28
2023-04-15T21:19:12.083Z,96771.13
2023-04-15T21:21:38.606Z,96768.63
2023-04-15T21:24:07.171Z,96775.47
2023-04-15T21:26:34.078Z,96772.72
2023-04-15T21:29:00.901Z,96777.97
2023-04-15T21:31:27.381Z,96782.66
2023-04-15T21:33:53.819Z,96784.97
2023-04-15T21:36:20.329Z,96786.41
2023-04-15T21:38:46.789Z,96794.44
2023-04-15T21:41:13.300Z,96790.44
2023-04-15T21:43:39.791Z,96789.63
2023-04-15T21:46:23.538Z,96795.00
2023-04-15T21:48:51.682Z,96791.34
2023-04-15T21:51:18.065Z,96793.94
2023-04-15T21:53:44.625Z,96801.25
2023-04-15T21:56:11.319Z,96800.00
2023-04-15T21:58:37.809Z,96801.72
2023-04-15T22:01:04.766Z,96802.16
2023-04-15T22:03:33.966Z,96803.34
2023-04-15T22:06:04.095Z,96804.47
2023-04-15T22:08:36.112Z,96815.44
2023-04-15T22:11:08.957Z,96805.84
2023-04-15T22:13:35.816Z,96811.22
2023-04-15T22:16:02.666Z,96808.81
2023-04-15T22:18:29.073Z,96812.25
2023-04-15T22:20:56.224Z,96814.97
2023-04-15T22:23:23.701Z,96821.94
2023-04-15T22:25:50.137Z,96820.81
2023-04-15T22:28:16.679Z,96818.50
2023-04-15T22:30:43.115Z,96825.81
2023-04-15T22:33:10.275Z,96832.09
2023-04-15T22:35:37.386Z,96828.13
2023-04-15T22:38:04.712Z,96829.59
2023-04-15T22:40:31.197Z,96834.84
2023-04-15T22:42:57.622Z,96839.66
2023-04-15T22:45:24.076Z,96841.25
2023-04-15T22:47:50.589Z,96849.84
2023-04-15T22:50:17.210Z,96848.81
2023-04-15T22:52:46.134Z,96854.50
2023-04-15T22:55:13.154Z,96854.31
2023-04-15T22:57:39.839Z,96851.47
2023-04-15T23:00:07.426Z,96840.97
2023-04-15T23:02:35.007Z,96853.28
2023-04-15T23:05:03.904Z,96857.50
2023-04-15T23:07:38.376Z,96856.59
2023-04-15T23:10:05.453Z,96858.19
2023-04-15T23:12:31.859Z,96858.31
2023-04-15T23:14:58.215Z,96862.78
2023-04-15T23:17:27.237Z,96860.63
2023-04-15T23:19:53.818Z,96865.28
2023-04-15T23:22:20.481Z,96867.81
2023-04-15T23:24:46.980Z,96860.94
2023-04-15T23:27:13.525Z,96864.25
2023-04-15T23:29:39.974Z,96866.56
2023-04-15T23:32:06.620Z,96866.66
2023-04-15T23:34:33.137Z,96872.03
2023-04-15T23:36:59.565Z,96871.44
2023-04-15T23:39:25.974Z,96876.16
2023-04-15T23:41:53.033Z,96876.94
2023-04-15T23:44:19.896Z,96875.53
2023-04-15T23:46:46.405Z,96878.16
2023-04-15T23:49:12.879Z,96877.28
2023-04-15T23:51:39.360Z,96875.31
2023-04-15T23:54:06.024Z,96878.16
2023-04-15T23:56:32.810Z,96875.75
2023-04-15T23:58:59.177Z,96874.19
